sensor_id;sensor_type;location;lat;lon;timestamp;P1;durP1;ratioP1;P2;durP2;ratioP2
18532;SDS011;9396;51.510;11.934;2023-09-19T00:00:05;2.90;;;1.53;;
18532;SDS011;9396;51.510;11.934;2023-09-19T00:02:37;3.40;;;1.37;;
18532;SDS011;9396;51.510;11.934;2023-09-19T00:05:04;4.83;;;1.53;;
18532;SDS011;9396;51.510;11.934;2023-09-19T00:07:32;1.50;;;1.30;;
18532;SDS011;9396;51.510;11.934;2023-09-19T00:10:01;4.03;;;1.50;;
18532;SDS011;9396;51.510;11.934;2023-09-19T00:12:29;4.83;;;1.50;;
18532;SDS011;9396;51.510;11.934;2023-09-19T00:14:58;3.53;;;1.63;;
18532;SDS011;9396;51.510;11.934;2023-09-19T00:17:25;4.13;;;1.37;;
18532;SDS011;9396;51.510;11.934;2023-09-19T00:19:55;3.00;;;1.23;;
18532;SDS011;9396;51.510;11.934;2023-09-19T00:22:22;3.77;;;1.43;;
18532;SDS011;9396;51.510;11.934;2023-09-19T00:24:51;5.57;;;1.50;;
18532;SDS011;9396;51.510;11.934;2023-09-19T00:27:18;7.00;;;1.40;;
18532;SDS011;9396;51.510;11.934;2023-09-19T00:29:45;3.87;;;2.00;;
18532;SDS011;9396;51.510;11.934;2023-09-19T00:32:13;5.40;;;1.50;;
18532;SDS011;9396;51.510;11.934;2023-09-19T00:34:39;2.63;;;1.50;;
18532;SDS011;9396;51.510;11.934;2023-09-19T00:37:07;2.63;;;1.60;;
18532;SDS011;9396;51.510;11.934;2023-09-19T00:39:36;2.40;;;1.40;;
18532;SDS011;9396;51.510;11.934;2023-09-19T00:42:03;3.33;;;1.27;;
18532;SDS011;9396;51.510;11.934;2023-09-19T00:44:30;3.93;;;1.53;;
18532;SDS011;9396;51.510;11.934;2023-09-19T00:46:56;2.87;;;1.40;;
18532;SDS011;9396;51.510;11.934;2023-09-19T00:49:25;4.77;;;1.50;;
18532;SDS011;9396;51.510;11.934;2023-09-19T00:51:52;3.83;;;1.60;;
18532;SDS011;9396;51.510;11.934;2023-09-19T00:54:19;2.67;;;1.70;;
18532;SDS011;9396;51.510;11.934;2023-09-19T00:56:46;2.83;;;1.47;;
18532;SDS011;9396;51.510;11.934;2023-09-19T00:59:14;3.83;;;1.67;;
18532;SDS011;9396;51.510;11.934;2023-09-19T01:01:40;3.60;;;1.30;;
18532;SDS011;9396;51.510;11.934;2023-09-19T01:04:08;5.73;;;1.67;;
18532;SDS011;9396;51.510;11.934;2023-09-19T01:06:36;4.10;;;1.67;;
18532;SDS011;9396;51.510;11.934;2023-09-19T01:09:04;2.30;;;1.20;;
18532;SDS011;9396;51.510;11.934;2023-09-19T01:11:32;4.50;;;1.40;;
18532;SDS011;9396;51.510;11.934;2023-09-19T01:14:07;3.07;;;1.50;;
18532;SDS011;9396;51.510;11.934;2023-09-19T01:16:42;3.67;;;1.23;;
18532;SDS011;9396;51.510;11.934;2023-09-19T01:22:31;3.23;;;1.30;;
18532;SDS011;9396;51.510;11.934;2023-09-19T01:25:09;3.87;;;1.60;;
18532;SDS011;9396;51.510;11.934;2023-09-19T01:28:06;2.50;;;1.13;;
18532;SDS011;9396;51.510;11.934;2023-09-19T01:30:43;3.80;;;1.20;;
18532;SDS011;9396;51.510;11.934;2023-09-19T01:33:10;3.07;;;1.23;;
18532;SDS011;9396;51.510;11.934;2023-09-19T01:35:37;2.27;;;1.10;;
18532;SDS011;9396;51.510;11.934;2023-09-19T01:38:04;3.50;;;1.53;;
18532;SDS011;9396;51.510;11.934;2023-09-19T01:40:32;1.30;;;1.10;;
18532;SDS011;9396;51.510;11.934;2023-09-19T01:43:07;3.67;;;1.20;;
18532;SDS011;9396;51.510;11.934;2023-09-19T01:45:40;2.33;;;1.20;;
18532;SDS011;9396;51.510;11.934;2023-09-19T01:48:17;3.03;;;1.20;;
18532;SDS011;9396;51.510;11.934;2023-09-19T01:50:53;4.23;;;1.40;;
18532;SDS011;9396;51.510;11.934;2023-09-19T01:53:27;4.47;;;1.50;;
18532;SDS011;9396;51.510;11.934;2023-09-19T01:55:59;3.27;;;1.40;;
18532;SDS011;9396;51.510;11.934;2023-09-19T01:58:30;2.60;;;1.33;;
18532;SDS011;9396;51.510;11.934;2023-09-19T02:01:02;3.47;;;1.20;;
18532;SDS011;9396;51.510;11.934;2023-09-19T02:03:31;5.67;;;1.40;;
18532;SDS011;9396;51.510;11.934;2023-09-19T02:05:59;7.00;;;1.60;;
18532;SDS011;9396;51.510;11.934;2023-09-19T02:08:26;3.27;;;1.50;;
18532;SDS011;9396;51.510;11.934;2023-09-19T02:10:54;2.73;;;1.00;;
18532;SDS011;9396;51.510;11.934;2023-09-19T02:13:21;5.97;;;1.40;;
18532;SDS011;9396;51.510;11.934;2023-09-19T02:15:49;1.90;;;1.20;;
18532;SDS011;9396;51.510;11.934;2023-09-19T02:18:17;3.00;;;1.30;;
18532;SDS011;9396;51.510;11.934;2023-09-19T02:20:45;2.83;;;1.30;;
18532;SDS011;9396;51.510;11.934;2023-09-19T02:23:12;1.93;;;1.27;;
18532;SDS011;9396;51.510;11.934;2023-09-19T02:25:40;1.23;;;1.03;;
18532;SDS011;9396;51.510;11.934;2023-09-19T02:28:09;4.57;;;1.63;;
18532;SDS011;9396;51.510;11.934;2023-09-19T02:30:36;2.67;;;1.23;;
18532;SDS011;9396;51.510;11.934;2023-09-19T02:33:03;6.00;;;1.47;;
18532;SDS011;9396;51.510;11.934;2023-09-19T02:35:32;6.37;;;1.53;;
18532;SDS011;9396;51.510;11.934;2023-09-19T02:38:01;4.30;;;1.40;;
18532;SDS011;9396;51.510;11.934;2023-09-19T02:40:31;2.47;;;1.30;;
18532;SDS011;9396;51.510;11.934;2023-09-19T02:43:00;3.40;;;1.20;;
18532;SDS011;9396;51.510;11.934;2023-09-19T02:45:28;2.70;;;1.30;;
18532;SDS011;9396;51.510;11.934;2023-09-19T02:47:55;5.30;;;1.20;;
18532;SDS011;9396;51.510;11.934;2023-09-19T02:50:22;2.33;;;1.27;;
18532;SDS011;9396;51.510;11.934;2023-09-19T02:52:50;2.53;;;1.10;;
18532;SDS011;9396;51.510;11.934;2023-09-19T02:55:17;3.53;;;1.10;;
18532;SDS011;9396;51.510;11.934;2023-09-19T02:57:45;3.43;;;1.20;;
18532;SDS011;9396;51.510;11.934;2023-09-19T03:00:13;3.10;;;1.40;;
18532;SDS011;9396;51.510;11.934;2023-09-19T03:02:40;4.37;;;1.50;;
18532;SDS011;9396;51.510;11.934;2023-09-19T03:05:07;4.00;;;1.37;;
18532;SDS011;9396;51.510;11.934;2023-09-19T03:07:36;5.13;;;1.50;;
18532;SDS011;9396;51.510;11.934;2023-09-19T03:10:05;3.07;;;1.33;;
18532;SDS011;9396;51.510;11.934;2023-09-19T03:12:32;5.90;;;1.50;;
18532;SDS011;9396;51.510;11.934;2023-09-19T03:15:00;2.80;;;1.17;;
18532;SDS011;9396;51.510;11.934;2023-09-19T03:17:26;2.80;;;1.20;;
18532;SDS011;9396;51.510;11.934;2023-09-19T03:19:53;3.70;;;1.30;;
18532;SDS011;9396;51.510;11.934;2023-09-19T03:22:20;2.13;;;1.47;;
18532;SDS011;9396;51.510;11.934;2023-09-19T03:24:47;4.20;;;1.30;;
18532;SDS011;9396;51.510;11.934;2023-09-19T03:27:15;3.37;;;1.30;;
18532;SDS011;9396;51.510;11.934;2023-09-19T03:29:42;2.43;;;1.20;;
18532;SDS011;9396;51.510;11.934;2023-09-19T03:32:09;2.50;;;1.30;;
18532;SDS011;9396;51.510;11.934;2023-09-19T03:34:36;1.67;;;1.20;;
18532;SDS011;9396;51.510;11.934;2023-09-19T03:37:07;3.83;;;1.27;;
18532;SDS011;9396;51.510;11.934;2023-09-19T03:39:34;1.83;;;1.27;;
18532;SDS011;9396;51.510;11.934;2023-09-19T03:42:01;2.10;;;1.23;;
18532;SDS011;9396;51.510;11.934;2023-09-19T03:44:30;3.93;;;1.20;;
18532;SDS011;9396;51.510;11.934;2023-09-19T03:46:57;3.90;;;1.50;;
18532;SDS011;9396;51.510;11.934;2023-09-19T03:49:23;2.87;;;1.10;;
18532;SDS011;9396;51.510;11.934;2023-09-19T03:51:50;2.97;;;1.30;;
18532;SDS011;9396;51.510;11.934;2023-09-19T03:54:16;2.10;;;1.50;;
18532;SDS011;9396;51.510;11.934;2023-09-19T03:56:44;3.53;;;1.50;;
18532;SDS011;9396;51.510;11.934;2023-09-19T03:59:11;4.43;;;1.43;;
18532;SDS011;9396;51.510;11.934;2023-09-19T04:01:40;3.93;;;1.27;;
18532;SDS011;9396;51.510;11.934;2023-09-19T04:04:06;4.70;;;1.30;;
18532;SDS011;9396;51.510;11.934;2023-09-19T04:06:34;3.20;;;1.40;;
18532;SDS011;9396;51.510;11.934;2023-09-19T04:09:01;1.90;;;1.10;;
18532;SDS011;9396;51.510;11.934;2023-09-19T04:11:29;5.70;;;1.20;;
18532;SDS011;9396;51.510;11.934;2023-09-19T04:13:56;2.23;;;1.13;;
18532;SDS011;9396;51.510;11.934;2023-09-19T04:16:23;7.07;;;1.50;;
18532;SDS011;9396;51.510;11.934;2023-09-19T04:18:51;4.67;;;1.23;;
18532;SDS011;9396;51.510;11.934;2023-09-19T04:21:17;4.07;;;1.50;;
18532;SDS011;9396;51.510;11.934;2023-09-19T04:23:44;2.07;;;1.00;;
18532;SDS011;9396;51.510;11.934;2023-09-19T04:26:11;2.27;;;1.30;;
18532;SDS011;9396;51.510;11.934;2023-09-19T04:28:38;2.83;;;1.50;;
18532;SDS011;9396;51.510;11.934;2023-09-19T04:31:05;2.37;;;1.23;;
18532;SDS011;9396;51.510;11.934;2023-09-19T04:33:33;7.03;;;1.47;;
18532;SDS011;9396;51.510;11.934;2023-09-19T04:36:02;3.10;;;1.20;;
18532;SDS011;9396;51.510;11.934;2023-09-19T04:38:28;3.23;;;1.20;;
18532;SDS011;9396;51.510;11.934;2023-09-19T04:40:56;1.77;;;1.03;;
18532;SDS011;9396;51.510;11.934;2023-09-19T04:43:23;2.73;;;1.40;;
18532;SDS011;9396;51.510;11.934;2023-09-19T04:45:50;3.17;;;1.20;;
18532;SDS011;9396;51.510;11.934;2023-09-19T04:48:20;1.50;;;1.00;;
18532;SDS011;9396;51.510;11.934;2023-09-19T04:50:49;4.10;;;1.33;;
18532;SDS011;9396;51.510;11.934;2023-09-19T04:53:17;2.87;;;1.40;;
18532;SDS011;9396;51.510;11.934;2023-09-19T04:55:45;3.10;;;1.10;;
18532;SDS011;9396;51.510;11.934;2023-09-19T04:58:16;3.70;;;1.20;;
18532;SDS011;9396;51.510;11.934;2023-09-19T05:00:42;4.40;;;1.70;;
18532;SDS011;9396;51.510;11.934;2023-09-19T05:03:09;3.27;;;0.90;;
18532;SDS011;9396;51.510;11.934;2023-09-19T05:05:36;1.87;;;1.20;;
18532;SDS011;9396;51.510;11.934;2023-09-19T05:08:04;3.47;;;1.23;;
18532;SDS011;9396;51.510;11.934;2023-09-19T05:10:32;4.53;;;1.27;;
18532;SDS011;9396;51.510;11.934;2023-09-19T05:13:00;2.77;;;1.33;;
18532;SDS011;9396;51.510;11.934;2023-09-19T05:15:27;7.63;;;1.30;;
18532;SDS011;9396;51.510;11.934;2023-09-19T05:17:54;4.70;;;1.50;;
18532;SDS011;9396;51.510;11.934;2023-09-19T05:20:20;2.33;;;1.47;;
18532;SDS011;9396;51.510;11.934;2023-09-19T05:22:57;2.57;;;1.13;;
18532;SDS011;9396;51.510;11.934;2023-09-19T05:25:28;5.43;;;1.50;;
18532;SDS011;9396;51.510;11.934;2023-09-19T05:27:57;3.10;;;1.30;;
18532;SDS011;9396;51.510;11.934;2023-09-19T05:30:25;1.57;;;1.17;;
18532;SDS011;9396;51.510;11.934;2023-09-19T05:32:54;2.90;;;1.37;;
18532;SDS011;9396;51.510;11.934;2023-09-19T05:35:21;5.00;;;1.63;;
18532;SDS011;9396;51.510;11.934;2023-09-19T05:37:47;3.03;;;1.40;;
18532;SDS011;9396;51.510;11.934;2023-09-19T05:40:15;2.77;;;1.30;;
18532;SDS011;9396;51.510;11.934;2023-09-19T05:42:42;4.83;;;1.10;;
18532;SDS011;9396;51.510;11.934;2023-09-19T05:45:10;1.63;;;1.10;;
18532;SDS011;9396;51.510;11.934;2023-09-19T05:47:38;4.57;;;1.40;;
18532;SDS011;9396;51.510;11.934;2023-09-19T05:50:06;6.27;;;1.40;;
18532;SDS011;9396;51.510;11.934;2023-09-19T05:52:34;5.17;;;1.57;;
18532;SDS011;9396;51.510;11.934;2023-09-19T05:55:02;2.10;;;1.20;;
18532;SDS011;9396;51.510;11.934;2023-09-19T05:57:30;2.80;;;1.23;;
18532;SDS011;9396;51.510;11.934;2023-09-19T05:59:57;1.70;;;1.10;;
18532;SDS011;9396;51.510;11.934;2023-09-19T06:02:25;4.23;;;1.60;;
18532;SDS011;9396;51.510;11.934;2023-09-19T06:04:54;3.87;;;1.43;;
18532;SDS011;9396;51.510;11.934;2023-09-19T06:07:20;4.00;;;1.27;;
18532;SDS011;9396;51.510;11.934;2023-09-19T06:09:48;1.87;;;1.27;;
18532;SDS011;9396;51.510;11.934;2023-09-19T06:12:15;2.07;;;1.40;;
18532;SDS011;9396;51.510;11.934;2023-09-19T06:14:42;4.53;;;1.33;;
18532;SDS011;9396;51.510;11.934;2023-09-19T06:17:09;3.80;;;1.40;;
18532;SDS011;9396;51.510;11.934;2023-09-19T06:19:37;4.87;;;1.30;;
18532;SDS011;9396;51.510;11.934;2023-09-19T06:22:03;6.97;;;1.50;;
18532;SDS011;9396;51.510;11.934;2023-09-19T06:24:30;5.20;;;1.60;;
18532;SDS011;9396;51.510;11.934;2023-09-19T06:26:57;13.80;;;1.80;;
18532;SDS011;9396;51.510;11.934;2023-09-19T06:29:26;2.70;;;1.40;;
18532;SDS011;9396;51.510;11.934;2023-09-19T06:31:53;2.93;;;1.40;;
18532;SDS011;9396;51.510;11.934;2023-09-19T06:34:20;5.50;;;1.30;;
18532;SDS011;9396;51.510;11.934;2023-09-19T06:36:49;6.40;;;1.80;;
18532;SDS011;9396;51.510;11.934;2023-09-19T06:39:17;3.73;;;1.43;;
18532;SDS011;9396;51.510;11.934;2023-09-19T06:41:44;1.97;;;1.10;;
18532;SDS011;9396;51.510;11.934;2023-09-19T06:44:11;4.00;;;1.43;;
18532;SDS011;9396;51.510;11.934;2023-09-19T06:46:37;3.63;;;1.40;;
18532;SDS011;9396;51.510;11.934;2023-09-19T06:49:06;4.40;;;1.30;;
18532;SDS011;9396;51.510;11.934;2023-09-19T06:51:32;3.00;;;1.37;;
18532;SDS011;9396;51.510;11.934;2023-09-19T06:54:02;4.13;;;1.20;;
18532;SDS011;9396;51.510;11.934;2023-09-19T06:56:30;4.40;;;1.60;;
18532;SDS011;9396;51.510;11.934;2023-09-19T06:58:58;5.23;;;1.40;;
18532;SDS011;9396;51.510;11.934;2023-09-19T07:01:24;2.80;;;1.70;;
18532;SDS011;9396;51.510;11.934;2023-09-19T07:03:51;5.90;;;1.37;;
18532;SDS011;9396;51.510;11.934;2023-09-19T07:06:18;3.80;;;1.47;;
18532;SDS011;9396;51.510;11.934;2023-09-19T07:08:45;3.80;;;1.67;;
18532;SDS011;9396;51.510;11.934;2023-09-19T07:11:13;3.80;;;1.30;;
18532;SDS011;9396;51.510;11.934;2023-09-19T07:13:40;5.10;;;1.43;;
18532;SDS011;9396;51.510;11.934;2023-09-19T07:16:07;3.37;;;1.50;;
18532;SDS011;9396;51.510;11.934;2023-09-19T07:18:35;3.77;;;1.73;;
18532;SDS011;9396;51.510;11.934;2023-09-19T07:21:02;5.47;;;1.73;;
18532;SDS011;9396;51.510;11.934;2023-09-19T07:23:29;3.83;;;1.47;;
18532;SDS011;9396;51.510;11.934;2023-09-19T07:25:59;4.30;;;1.57;;
18532;SDS011;9396;51.510;11.934;2023-09-19T07:28:27;3.47;;;1.40;;
18532;SDS011;9396;51.510;11.934;2023-09-19T07:30:54;7.17;;;1.60;;
18532;SDS011;9396;51.510;11.934;2023-09-19T07:33:21;6.53;;;1.80;;
18532;SDS011;9396;51.510;11.934;2023-09-19T07:35:50;4.50;;;1.57;;
18532;SDS011;9396;51.510;11.934;2023-09-19T07:38:17;3.97;;;1.30;;
18532;SDS011;9396;51.510;11.934;2023-09-19T07:40:43;7.40;;;1.60;;
18532;SDS011;9396;51.510;11.934;2023-09-19T07:43:10;2.67;;;1.50;;
18532;SDS011;9396;51.510;11.934;2023-09-19T07:45:38;3.63;;;1.67;;
18532;SDS011;9396;51.510;11.934;2023-09-19T07:48:05;4.90;;;1.50;;
18532;SDS011;9396;51.510;11.934;2023-09-19T07:50:39;4.73;;;1.93;;
18532;SDS011;9396;51.510;11.934;2023-09-19T07:53:08;4.70;;;1.60;;
18532;SDS011;9396;51.510;11.934;2023-09-19T07:55:37;3.73;;;1.57;;
18532;SDS011;9396;51.510;11.934;2023-09-19T07:58:04;7.70;;;2.13;;
18532;SDS011;9396;51.510;11.934;2023-09-19T08:00:32;9.67;;;1.97;;
18532;SDS011;9396;51.510;11.934;2023-09-19T08:03:01;5.63;;;1.90;;
18532;SDS011;9396;51.510;11.934;2023-09-19T08:05:29;4.43;;;1.50;;
18532;SDS011;9396;51.510;11.934;2023-09-19T08:07:55;5.23;;;1.60;;
18532;SDS011;9396;51.510;11.934;2023-09-19T08:10:24;6.07;;;1.50;;
18532;SDS011;9396;51.510;11.934;2023-09-19T08:12:52;6.90;;;1.73;;
18532;SDS011;9396;51.510;11.934;2023-09-19T08:15:23;5.40;;;1.60;;
18532;SDS011;9396;51.510;11.934;2023-09-19T08:17:49;7.47;;;1.70;;
18532;SDS011;9396;51.510;11.934;2023-09-19T08:20:18;3.90;;;1.60;;
18532;SDS011;9396;51.510;11.934;2023-09-19T08:22:47;6.90;;;1.60;;
18532;SDS011;9396;51.510;11.934;2023-09-19T08:25:14;7.03;;;1.93;;
18532;SDS011;9396;51.510;11.934;2023-09-19T08:27:43;7.60;;;1.77;;
18532;SDS011;9396;51.510;11.934;2023-09-19T08:30:13;4.23;;;1.40;;
18532;SDS011;9396;51.510;11.934;2023-09-19T08:32:40;3.43;;;1.33;;
18532;SDS011;9396;51.510;11.934;2023-09-19T08:35:08;4.60;;;1.70;;
18532;SDS011;9396;51.510;11.934;2023-09-19T08:37:36;5.50;;;1.30;;
18532;SDS011;9396;51.510;11.934;2023-09-19T08:40:03;7.17;;;1.97;;
18532;SDS011;9396;51.510;11.934;2023-09-19T08:42:46;6.07;;;1.33;;
18532;SDS011;9396;51.510;11.934;2023-09-19T08:45:13;3.93;;;1.10;;
18532;SDS011;9396;51.510;11.934;2023-09-19T08:47:41;6.40;;;1.40;;
18532;SDS011;9396;51.510;11.934;2023-09-19T08:50:16;3.33;;;1.60;;
18532;SDS011;9396;51.510;11.934;2023-09-19T08:52:47;5.90;;;1.50;;
18532;SDS011;9396;51.510;11.934;2023-09-19T08:55:18;4.57;;;1.57;;
18532;SDS011;9396;51.510;11.934;2023-09-19T08:57:48;4.50;;;1.70;;
18532;SDS011;9396;51.510;11.934;2023-09-19T09:00:17;5.83;;;2.13;;
18532;SDS011;9396;51.510;11.934;2023-09-19T09:02:47;4.10;;;1.60;;
18532;SDS011;9396;51.510;11.934;2023-09-19T09:05:16;4.23;;;1.60;;
18532;SDS011;9396;51.510;11.934;2023-09-19T09:07:49;5.23;;;1.70;;
18532;SDS011;9396;51.510;11.934;2023-09-19T09:10:17;2.87;;;1.40;;
18532;SDS011;9396;51.510;11.934;2023-09-19T09:12:47;4.33;;;1.80;;
18532;SDS011;9396;51.510;11.934;2023-09-19T09:15:14;5.37;;;1.90;;
18532;SDS011;9396;51.510;11.934;2023-09-19T09:17:46;5.93;;;2.00;;
18532;SDS011;9396;51.510;11.934;2023-09-19T09:20:13;5.53;;;1.83;;
18532;SDS011;9396;51.510;11.934;2023-09-19T09:22:43;4.27;;;1.53;;
18532;SDS011;9396;51.510;11.934;2023-09-19T09:25:19;3.40;;;1.50;;
18532;SDS011;9396;51.510;11.934;2023-09-19T09:27:48;5.57;;;1.80;;
18532;SDS011;9396;51.510;11.934;2023-09-19T09:30:32;3.07;;;1.70;;
18532;SDS011;9396;51.510;11.934;2023-09-19T09:33:07;5.23;;;2.00;;
18532;SDS011;9396;51.510;11.934;2023-09-19T09:35:36;5.80;;;1.70;;
18532;SDS011;9396;51.510;11.934;2023-09-19T09:38:05;3.83;;;1.53;;
18532;SDS011;9396;51.510;11.934;2023-09-19T09:40:45;9.83;;;1.70;;
18532;SDS011;9396;51.510;11.934;2023-09-19T09:43:30;3.87;;;1.90;;
18532;SDS011;9396;51.510;11.934;2023-09-19T09:49:06;4.27;;;1.50;;
18532;SDS011;9396;51.510;11.934;2023-09-19T09:51:45;4.63;;;1.70;;
18532;SDS011;9396;51.510;11.934;2023-09-19T09:54:24;4.10;;;1.80;;
18532;SDS011;9396;51.510;11.934;2023-09-19T09:56:53;4.70;;;1.77;;
18532;SDS011;9396;51.510;11.934;2023-09-19T10:02:16;5.07;;;1.60;;
18532;SDS011;9396;51.510;11.934;2023-09-19T10:04:49;3.57;;;1.60;;
18532;SDS011;9396;51.510;11.934;2023-09-19T10:07:34;4.23;;;2.30;;
18532;SDS011;9396;51.510;11.934;2023-09-19T10:10:05;5.97;;;1.90;;
18532;SDS011;9396;51.510;11.934;2023-09-19T10:12:47;5.07;;;2.07;;
18532;SDS011;9396;51.510;11.934;2023-09-19T10:15:15;6.47;;;2.10;;
18532;SDS011;9396;51.510;11.934;2023-09-19T10:17:45;7.90;;;1.67;;
18532;SDS011;9396;51.510;11.934;2023-09-19T10:20:13;2.77;;;1.70;;
18532;SDS011;9396;51.510;11.934;2023-09-19T10:22:58;3.83;;;1.80;;
18532;SDS011;9396;51.510;11.934;2023-09-19T10:25:27;7.27;;;1.43;;
18532;SDS011;9396;51.510;11.934;2023-09-19T10:27:55;3.63;;;1.60;;
18532;SDS011;9396;51.510;11.934;2023-09-19T10:30:25;5.77;;;1.93;;
18532;SDS011;9396;51.510;11.934;2023-09-19T10:32:57;4.53;;;1.83;;
18532;SDS011;9396;51.510;11.934;2023-09-19T10:35:26;2.97;;;1.67;;
18532;SDS011;9396;51.510;11.934;2023-09-19T10:37:54;5.73;;;1.83;;
18532;SDS011;9396;51.510;11.934;2023-09-19T10:40:28;5.27;;;1.90;;
18532;SDS011;9396;51.510;11.934;2023-09-19T10:43:00;9.47;;;1.50;;
18532;SDS011;9396;51.510;11.934;2023-09-19T10:45:30;5.83;;;1.60;;
18532;SDS011;9396;51.510;11.934;2023-09-19T10:47:57;6.37;;;1.93;;
18532;SDS011;9396;51.510;11.934;2023-09-19T10:50:24;4.03;;;1.70;;
18532;SDS011;9396;51.510;11.934;2023-09-19T10:52:56;7.37;;;1.97;;
18532;SDS011;9396;51.510;11.934;2023-09-19T10:55:31;3.53;;;1.80;;
18532;SDS011;9396;51.510;11.934;2023-09-19T10:58:00;3.97;;;1.60;;
18532;SDS011;9396;51.510;11.934;2023-09-19T11:00:30;3.90;;;2.00;;
18532;SDS011;9396;51.510;11.934;2023-09-19T11:03:18;3.97;;;1.70;;
18532;SDS011;9396;51.510;11.934;2023-09-19T11:06:05;6.23;;;1.70;;
18532;SDS011;9396;51.510;11.934;2023-09-19T11:08:55;8.20;;;1.90;;
18532;SDS011;9396;51.510;11.934;2023-09-19T11:11:46;6.33;;;1.77;;
18532;SDS011;9396;51.510;11.934;2023-09-19T11:23:21;6.07;;;1.73;;
18532;SDS011;9396;51.510;11.934;2023-09-19T11:25:52;5.20;;;1.80;;
18532;SDS011;9396;51.510;11.934;2023-09-19T11:28:30;6.90;;;1.70;;
18532;SDS011;9396;51.510;11.934;2023-09-19T11:30:59;4.67;;;1.40;;
18532;SDS011;9396;51.510;11.934;2023-09-19T11:40:27;7.07;;;1.80;;
18532;SDS011;9396;51.510;11.934;2023-09-19T11:42:55;6.20;;;1.73;;
18532;SDS011;9396;51.510;11.934;2023-09-19T11:48:28;8.07;;;2.17;;
18532;SDS011;9396;51.510;11.934;2023-09-19T11:50:55;5.90;;;1.50;;
18532;SDS011;9396;51.510;11.934;2023-09-19T11:53:24;5.43;;;1.87;;
18532;SDS011;9396;51.510;11.934;2023-09-19T11:56:01;7.20;;;1.90;;
18532;SDS011;9396;51.510;11.934;2023-09-19T11:58:32;3.20;;;1.70;;
18532;SDS011;9396;51.510;11.934;2023-09-19T12:00:59;7.00;;;1.80;;
18532;SDS011;9396;51.510;11.934;2023-09-19T12:03:34;4.43;;;1.60;;
18532;SDS011;9396;51.510;11.934;2023-09-19T12:06:10;4.87;;;1.60;;
18532;SDS011;9396;51.510;11.934;2023-09-19T12:08:39;2.50;;;1.20;;
18532;SDS011;9396;51.510;11.934;2023-09-19T12:11:11;5.07;;;1.70;;
18532;SDS011;9396;51.510;11.934;2023-09-19T12:13:40;4.57;;;1.60;;
18532;SDS011;9396;51.510;11.934;2023-09-19T12:16:11;7.40;;;1.80;;
18532;SDS011;9396;51.510;11.934;2023-09-19T12:18:41;2.60;;;1.23;;
18532;SDS011;9396;51.510;11.934;2023-09-19T12:21:26;4.50;;;1.67;;
18532;SDS011;9396;51.510;11.934;2023-09-19T12:26:44;2.70;;;1.43;;
18532;SDS011;9396;51.510;11.934;2023-09-19T12:29:13;5.93;;;1.70;;
18532;SDS011;9396;51.510;11.934;2023-09-19T12:31:52;5.37;;;1.60;;
18532;SDS011;9396;51.510;11.934;2023-09-19T12:34:27;5.40;;;1.50;;
18532;SDS011;9396;51.510;11.934;2023-09-19T12:37:04;7.40;;;1.70;;
18532;SDS011;9396;51.510;11.934;2023-09-19T12:39:41;8.37;;;2.00;;
18532;SDS011;9396;51.510;11.934;2023-09-19T12:42:14;2.43;;;1.40;;
18532;SDS011;9396;51.510;11.934;2023-09-19T12:44:42;9.47;;;1.97;;
18532;SDS011;9396;51.510;11.934;2023-09-19T12:47:12;3.03;;;1.60;;
18532;SDS011;9396;51.510;11.934;2023-09-19T12:52:43;2.93;;;1.50;;
18532;SDS011;9396;51.510;11.934;2023-09-19T12:55:22;6.10;;;1.70;;
18532;SDS011;9396;51.510;11.934;2023-09-19T12:57:59;4.40;;;1.87;;
18532;SDS011;9396;51.510;11.934;2023-09-19T13:00:34;4.53;;;1.67;;
18532;SDS011;9396;51.510;11.934;2023-09-19T13:03:15;4.00;;;1.60;;
18532;SDS011;9396;51.510;11.934;2023-09-19T13:05:53;6.13;;;1.90;;
18532;SDS011;9396;51.510;11.934;2023-09-19T13:08:23;6.07;;;2.27;;
18532;SDS011;9396;51.510;11.934;2023-09-19T13:11:02;4.77;;;1.70;;
18532;SDS011;9396;51.510;11.934;2023-09-19T13:13:32;4.27;;;1.70;;
18532;SDS011;9396;51.510;11.934;2023-09-19T13:15:58;2.47;;;1.60;;
18532;SDS011;9396;51.510;11.934;2023-09-19T13:18:28;5.03;;;2.13;;
18532;SDS011;9396;51.510;11.934;2023-09-19T13:23:52;3.60;;;1.80;;
18532;SDS011;9396;51.510;11.934;2023-09-19T13:26:19;2.30;;;1.77;;
18532;SDS011;9396;51.510;11.934;2023-09-19T13:28:47;3.67;;;1.70;;
18532;SDS011;9396;51.510;11.934;2023-09-19T13:31:14;4.37;;;1.53;;
18532;SDS011;9396;51.510;11.934;2023-09-19T13:33:44;3.47;;;1.40;;
18532;SDS011;9396;51.510;11.934;2023-09-19T13:36:13;5.60;;;1.70;;
18532;SDS011;9396;51.510;11.934;2023-09-19T13:38:40;4.37;;;1.60;;
18532;SDS011;9396;51.510;11.934;2023-09-19T13:41:09;4.50;;;1.73;;
18532;SDS011;9396;51.510;11.934;2023-09-19T13:43:36;3.37;;;1.80;;
18532;SDS011;9396;51.510;11.934;2023-09-19T13:46:03;8.53;;;2.53;;
18532;SDS011;9396;51.510;11.934;2023-09-19T13:48:32;4.80;;;1.90;;
18532;SDS011;9396;51.510;11.934;2023-09-19T13:51:01;4.93;;;2.20;;
18532;SDS011;9396;51.510;11.934;2023-09-19T13:53:31;3.93;;;1.80;;
18532;SDS011;9396;51.510;11.934;2023-09-19T13:55:57;5.00;;;1.90;;
18532;SDS011;9396;51.510;11.934;2023-09-19T13:58:24;5.00;;;2.20;;
18532;SDS011;9396;51.510;11.934;2023-09-19T14:00:52;6.87;;;2.00;;
18532;SDS011;9396;51.510;11.934;2023-09-19T14:03:20;4.00;;;1.77;;
18532;SDS011;9396;51.510;11.934;2023-09-19T14:05:47;7.23;;;2.13;;
18532;SDS011;9396;51.510;11.934;2023-09-19T14:08:16;2.80;;;1.80;;
18532;SDS011;9396;51.510;11.934;2023-09-19T14:10:44;3.57;;;2.10;;
18532;SDS011;9396;51.510;11.934;2023-09-19T14:13:11;5.03;;;2.03;;
18532;SDS011;9396;51.510;11.934;2023-09-19T14:15:40;5.83;;;1.90;;
18532;SDS011;9396;51.510;11.934;2023-09-19T14:18:07;4.63;;;2.10;;
18532;SDS011;9396;51.510;11.934;2023-09-19T14:20:37;5.07;;;2.00;;
18532;SDS011;9396;51.510;11.934;2023-09-19T14:23:05;6.30;;;2.20;;
18532;SDS011;9396;51.510;11.934;2023-09-19T14:25:33;4.30;;;1.80;;
18532;SDS011;9396;51.510;11.934;2023-09-19T14:28:02;7.80;;;2.00;;
18532;SDS011;9396;51.510;11.934;2023-09-19T14:30:29;5.57;;;1.87;;
18532;SDS011;9396;51.510;11.934;2023-09-19T14:32:56;4.73;;;1.90;;
18532;SDS011;9396;51.510;11.934;2023-09-19T14:35:23;4.40;;;1.80;;
18532;SDS011;9396;51.510;11.934;2023-09-19T14:37:50;6.00;;;2.10;;
18532;SDS011;9396;51.510;11.934;2023-09-19T14:40:17;4.70;;;1.90;;
18532;SDS011;9396;51.510;11.934;2023-09-19T14:42:43;3.67;;;1.70;;
18532;SDS011;9396;51.510;11.934;2023-09-19T14:45:11;6.23;;;2.33;;
18532;SDS011;9396;51.510;11.934;2023-09-19T14:47:41;6.90;;;1.80;;
18532;SDS011;9396;51.510;11.934;2023-09-19T14:50:08;4.93;;;1.80;;
18532;SDS011;9396;51.510;11.934;2023-09-19T14:52:37;5.20;;;2.13;;
18532;SDS011;9396;51.510;11.934;2023-09-19T14:55:05;5.10;;;1.83;;
18532;SDS011;9396;51.510;11.934;2023-09-19T14:57:34;3.60;;;2.10;;
18532;SDS011;9396;51.510;11.934;2023-09-19T15:00:05;7.47;;;1.90;;
18532;SDS011;9396;51.510;11.934;2023-09-19T15:02:38;5.00;;;2.03;;
18532;SDS011;9396;51.510;11.934;2023-09-19T15:05:06;3.37;;;1.70;;
18532;SDS011;9396;51.510;11.934;2023-09-19T15:07:34;9.93;;;2.10;;
18532;SDS011;9396;51.510;11.934;2023-09-19T15:10:01;6.73;;;2.20;;
18532;SDS011;9396;51.510;11.934;2023-09-19T15:12:32;7.53;;;2.17;;
18532;SDS011;9396;51.510;11.934;2023-09-19T15:15:00;5.73;;;2.03;;
18532;SDS011;9396;51.510;11.934;2023-09-19T15:17:26;4.90;;;2.13;;
18532;SDS011;9396;51.510;11.934;2023-09-19T15:19:54;5.13;;;2.33;;
18532;SDS011;9396;51.510;11.934;2023-09-19T15:22:21;7.87;;;2.10;;
18532;SDS011;9396;51.510;11.934;2023-09-19T15:24:48;5.70;;;2.20;;
18532;SDS011;9396;51.510;11.934;2023-09-19T15:27:14;8.53;;;2.17;;
18532;SDS011;9396;51.510;11.934;2023-09-19T15:29:41;4.83;;;2.30;;
18532;SDS011;9396;51.510;11.934;2023-09-19T15:32:09;6.37;;;2.60;;
18532;SDS011;9396;51.510;11.934;2023-09-19T15:34:35;5.33;;;2.10;;
18532;SDS011;9396;51.510;11.934;2023-09-19T15:37:03;4.07;;;2.20;;